Time;durP1;ratioP1;P1;durP2;ratioP2;P2;SDS_P1;SDS_P2;PMS_P1;PMS_P2;Temp;Humidity;BMP_temperature;BMP_pressure;BME280_temperature;BME280_humidity;BME280_pressure;Samples;Min_cycle;Max_cycle;Signal;HPM_P1;HPM_P2
2023/04/13 00:00:09;;;;;;;;;;;17.20;63.20;;;;;;4973892;28;1334;-74
2023/04/13 00:02:37;;;;;;;;;;;17.20;63.20;;;;;;4973676;28;1317;-74
2023/04/13 00:05:09;;;;;;;;;;;17.20;63.20;;;;;;4974194;28;1299;-75
2023/04/13 00:07:37;;;;;;;;;;;17.20;63.20;;;;;;4971761;28;1371;-74
2023/04/13 00:10:07;;;;;;;;;;;17.20;63.30;;;;;;4971838;28;1628;-75
2023/04/13 00:12:33;;;;;;;;;;;17.20;63.20;;;;;;4971387;28;1105;-76
2023/04/13 00:14:59;;;;;;;;;;;17.20;63.30;;;;;;4973392;28;1963;-73
2023/04/13 00:17:25;;;;;;;;;;;17.20;63.30;;;;;;4973182;28;1346;-73
2023/04/13 00:19:52;;;;;;;;;;;17.20;63.30;;;;;;4971722;28;1228;-73
2023/04/13 00:22:21;;;;;;;;;;;17.20;63.40;;;;;;4974312;28;1254;-76
2023/04/13 00:24:54;;;;;;;;;;;17.20;63.30;;;;;;4975616;28;856;-73
2023/04/13 00:27:20;;;;;;;;;;;17.20;63.30;;;;;;4961905;28;1436;-75
2023/04/13 00:29:46;;;;;;;;;;;17.20;63.40;;;;;;4974139;28;821;-75
2023/04/13 00:32:11;;;;;;;;;;;17.20;63.40;;;;;;4974120;28;916;-75
2023/04/13 00:34:37;;;;;;;;;;;17.20;63.40;;;;;;4974625;28;1915;-73
2023/04/13 00:37:03;;;;;;;;;;;17.20;63.40;;;;;;4973405;28;1506;-74
2023/04/13 00:39:30;;;;;;;;;;;17.20;63.70;;;;;;4973345;28;1297;-74
2023/04/13 00:41:58;;;;;;;;;;;17.20;63.40;;;;;;4975138;28;846;-74
2023/04/13 00:44:24;;;;;;;;;;;17.20;63.50;;;;;;4971714;28;840;-75
2023/04/13 00:46:49;;;;;;;;;;;17.20;64.20;;;;;;4973135;28;868;-75
2023/04/13 00:49:16;;;;;;;;;;;17.20;63.40;;;;;;4971623;28;1288;-74
2023/04/13 00:51:43;;;;;;;;;;;17.20;63.50;;;;;;4954867;28;1192;-74
2023/04/13 00:54:12;;;;;;;;;;;17.20;63.50;;;;;;4971467;28;1906;-73
2023/04/13 00:56:37;;;;;;;;;;;17.20;63.50;;;;;;4972645;28;825;-74
2023/04/13 00:59:03;;;;;;;;;;;17.20;63.50;;;;;;4972571;28;1261;-72
2023/04/13 01:01:29;;;;;;;;;;;17.20;63.50;;;;;;4971674;28;924;-74
2023/04/13 01:03:55;;;;;;;;;;;17.20;63.90;;;;;;4972432;28;908;-75
2023/04/13 01:06:23;;;;;;;;;;;17.20;63.50;;;;;;4973097;28;828;-75
2023/04/13 01:09:00;;;;;;;;;;;17.20;63.50;;;;;;4972016;28;1265;-75
2023/04/13 01:11:35;;;;;;;;;;;17.20;63.60;;;;;;4972014;28;892;-76
2023/04/13 01:14:04;;;;;;;;;;;17.20;63.60;;;;;;4971855;28;1967;-75
2023/04/13 01:16:30;;;;;;;;;;;17.20;63.60;;;;;;4973206;28;979;-76
2023/04/13 01:18:56;;;;;;;;;;;17.20;63.60;;;;;;4970784;28;1278;-75
2023/04/13 01:21:23;;;;;;;;;;;17.20;63.60;;;;;;4972223;28;893;-76
2023/04/13 01:24:04;;;;;;;;;;;17.20;63.60;;;;;;4972061;28;905;-75
2023/04/13 01:26:50;;;;;;;;;;;17.20;63.60;;;;;;4973280;28;938;-75
2023/04/13 01:29:16;;;;;;;;;;;17.20;63.70;;;;;;4961672;28;1336;-73
2023/04/13 01:31:41;;;;;;;;;;;17.20;63.60;;;;;;4971328;28;836;-74
2023/04/13 01:34:07;;;;;;;;;;;17.20;63.70;;;;;;4971274;28;1972;-74
2023/04/13 01:36:32;;;;;;;;;;;17.20;64.40;;;;;;4971679;28;787;-72
2023/04/13 01:38:58;;;;;;;;;;;17.20;63.70;;;;;;4972491;28;1674;-75
2023/04/13 01:41:24;;;;;;;;;;;17.20;63.70;;;;;;4974213;28;946;-73
2023/04/13 01:43:50;;;;;;;;;;;17.20;63.70;;;;;;4974449;28;899;-74
2023/04/13 01:46:15;;;;;;;;;;;17.20;63.70;;;;;;4973255;28;939;-73
2023/04/13 01:48:45;;;;;;;;;;;17.20;63.70;;;;;;4973193;28;1338;-74
2023/04/13 01:51:12;;;;;;;;;;;17.20;63.70;;;;;;4973524;28;903;-75
2023/04/13 01:53:39;;;;;;;;;;;17.20;63.70;;;;;;4973394;28;1977;-75
2023/04/13 01:56:04;;;;;;;;;;;17.20;63.70;;;;;;4973603;28;896;-74
2023/04/13 01:58:32;;;;;;;;;;;17.20;63.80;;;;;;4974180;28;1270;-75
2023/04/13 02:00:58;;;;;;;;;;;17.20;63.70;;;;;;4973372;28;880;-74
2023/04/13 02:03:23;;;;;;;;;;;17.20;63.70;;;;;;4974394;28;908;-75
2023/04/13 02:05:49;;;;;;;;;;;17.20;63.70;;;;;;4974785;28;1034;-76
2023/04/13 02:08:17;;;;;;;;;;;17.20;63.80;;;;;;4973149;28;1265;-74
2023/04/13 02:10:42;;;;;;;;;;;17.20;63.80;;;;;;4974497;28;836;-75
2023/04/13 02:13:08;;;;;;;;;;;17.20;63.80;;;;;;4972447;28;1007;-75
2023/04/13 02:15:34;;;;;;;;;;;17.20;63.80;;;;;;4973496;28;1894;-75
2023/04/13 02:18:00;;;;;;;;;;;17.20;63.80;;;;;;4972016;28;1312;-75
2023/04/13 02:20:25;;;;;;;;;;;17.20;63.80;;;;;;4970797;28;1442;-75
2023/04/13 02:22:51;;;;;;;;;;;17.20;63.80;;;;;;4971425;28;1297;-74
2023/04/13 02:25:17;;;;;;;;;;;17.20;63.80;;;;;;4970996;28;879;-75
2023/04/13 02:27:43;;;;;;;;;;;17.20;63.80;;;;;;4972050;28;1267;-74
2023/04/13 02:30:08;;;;;;;;;;;17.20;63.80;;;;;;4974372;28;894;-74
2023/04/13 02:32:34;;;;;;;;;;;17.20;63.80;;;;;;4972434;28;991;-74
2023/04/13 02:35:00;;;;;;;;;;;17.20;63.80;;;;;;4971784;28;1910;-74
2023/04/13 02:37:28;;;;;;;;;;;17.20;63.90;;;;;;4972562;28;1288;-74
2023/04/13 02:39:54;;;;;;;;;;;17.20;63.90;;;;;;4970401;28;984;-75
2023/04/13 02:42:20;;;;;;;;;;;17.20;63.90;;;;;;4972042;28;896;-74
2023/04/13 02:44:46;;;;;;;;;;;17.20;64.60;;;;;;4971717;28;809;-74
2023/04/13 02:47:11;;;;;;;;;;;17.20;63.90;;;;;;4970369;28;862;-74
2023/04/13 02:49:37;;;;;;;;;;;17.20;63.90;;;;;;4970483;28;1237;-74
2023/04/13 02:52:02;;;;;;;;;;;17.20;63.90;;;;;;4971892;28;908;-74
2023/04/13 02:54:28;;;;;;;;;;;17.20;63.90;;;;;;4971567;28;1990;-73
2023/04/13 02:56:54;;;;;;;;;;;17.20;63.90;;;;;;4969615;28;1287;-74
2023/04/13 02:59:21;;;;;;;;;;;17.20;64.00;;;;;;4971530;28;1288;-73
2023/04/13 03:01:47;;;;;;;;;;;17.20;64.00;;;;;;4970446;28;891;-73
2023/04/13 03:04:13;;;;;;;;;;;17.20;63.90;;;;;;4971401;28;808;-74
2023/04/13 03:06:41;;;;;;;;;;;17.10;63.90;;;;;;4970236;28;821;-75
2023/04/13 03:09:07;;;;;;;;;;;17.20;64.00;;;;;;4970455;28;1284;-74
2023/04/13 03:11:32;;;;;;;;;;;17.20;64.00;;;;;;4971092;28;833;-74
2023/04/13 03:13:59;;;;;;;;;;;17.20;64.00;;;;;;4969979;28;1894;-75
2023/04/13 03:16:25;;;;;;;;;;;17.20;64.00;;;;;;4971521;28;825;-74
2023/04/13 03:18:51;;;;;;;;;;;17.20;64.20;;;;;;4971039;28;1250;-75
2023/04/13 03:21:16;;;;;;;;;;;17.10;64.70;;;;;;4971338;28;841;-75
2023/04/13 03:23:42;;;;;;;;;;;17.20;64.00;;;;;;4971759;28;986;-78
2023/04/13 03:26:07;;;;;;;;;;;17.20;64.00;;;;;;4974923;28;907;-78
2023/04/13 03:28:33;;;;;;;;;;;17.20;64.00;;;;;;4972110;28;1290;-73
2023/04/13 03:30:58;;;;;;;;;;;17.10;64.00;;;;;;4955938;28;1173;-73
2023/04/13 03:33:24;;;;;;;;;;;17.10;63.90;;;;;;4974763;28;869;-73
2023/04/13 03:35:49;;;;;;;;;;;17.10;64.00;;;;;;4973249;28;1966;-73
2023/04/13 03:38:15;;;;;;;;;;;17.10;64.00;;;;;;4974228;28;1381;-73
2023/04/13 03:40:40;;;;;;;;;;;17.10;64.00;;;;;;4974667;28;859;-73
2023/04/13 03:43:06;;;;;;;;;;;17.10;64.10;;;;;;4973360;28;1215;-73
2023/04/13 03:45:32;;;;;;;;;;;17.10;64.00;;;;;;4974444;28;962;-73
2023/04/13 03:47:57;;;;;;;;;;;17.10;64.00;;;;;;4974210;28;1280;-73
2023/04/13 03:50:23;;;;;;;;;;;17.10;64.10;;;;;;4973062;28;1394;-73
2023/04/13 03:52:48;;;;;;;;;;;17.10;64.00;;;;;;4974389;28;838;-73
2023/04/13 03:55:14;;;;;;;;;;;17.10;64.00;;;;;;4974700;28;1930;-76
2023/04/13 03:57:39;;;;;;;;;;;17.10;64.10;;;;;;4974057;28;1265;-75
2023/04/13 04:00:09;;;;;;;;;;;17.10;64.10;;;;;;4972389;28;884;-75
2023/04/13 04:02:36;;;;;;;;;;;17.10;64.10;;;;;;4972369;28;1443;-75
2023/04/13 04:05:02;;;;;;;;;;;17.10;64.10;;;;;;4973645;28;852;-75
2023/04/13 04:07:27;;;;;;;;;;;17.10;64.10;;;;;;4972188;28;1277;-75
2023/04/13 04:09:53;;;;;;;;;;;17.10;64.10;;;;;;4972230;28;888;-75
2023/04/13 04:12:18;;;;;;;;;;;17.20;64.10;;;;;;4973642;28;886;-75
2023/04/13 04:14:44;;;;;;;;;;;17.20;64.00;;;;;;4974736;28;1906;-74
2023/04/13 04:17:09;;;;;;;;;;;17.20;63.90;;;;;;4975327;28;825;-75
2023/04/13 04:19:35;;;;;;;;;;;17.20;63.90;;;;;;4975034;28;1298;-75
2023/04/13 04:22:02;;;;;;;;;;;17.30;63.80;;;;;;4974497;28;867;-74
2023/04/13 04:24:28;;;;;;;;;;;17.30;63.70;;;;;;4973642;28;894;-76
2023/04/13 04:26:54;;;;;;;;;;;17.30;63.60;;;;;;4984537;28;1288;-76
2023/04/13 04:29:28;;;;;;;;;;;17.30;63.50;;;;;;4983269;28;1615;-76
2023/04/13 04:31:54;;;;;;;;;;;17.40;63.50;;;;;;4974014;28;876;-76
2023/04/13 04:34:20;;;;;;;;;;;17.40;63.40;;;;;;4972667;28;1911;-75
2023/04/13 04:36:49;;;;;;;;;;;17.40;63.30;;;;;;4973921;28;939;-74
2023/04/13 04:39:20;;;;;;;;;;;17.40;63.20;;;;;;4974687;28;1371;-74
2023/04/13 04:41:52;;;;;;;;;;;17.50;63.20;;;;;;4972537;28;908;-74
2023/04/13 04:44:29;;;;;;;;;;;17.50;63.10;;;;;;4970905;28;915;-74
2023/04/13 04:46:55;;;;;;;;;;;17.50;63.00;;;;;;4971202;28;918;-74
2023/04/13 04:49:20;;;;;;;;;;;17.50;62.90;;;;;;4973051;28;1301;-75
2023/04/13 04:51:47;;;;;;;;;;;17.50;62.90;;;;;;4973990;28;1011;-78
2023/04/13 04:54:15;;;;;;;;;;;17.60;62.90;;;;;;4955881;28;1938;-74
2023/04/13 04:56:41;;;;;;;;;;;17.50;62.70;;;;;;4973393;28;876;-75
2023/04/13 04:59:07;;;;;;;;;;;17.60;62.70;;;;;;4972746;28;1281;-75
2023/04/13 05:01:33;;;;;;;;;;;17.60;62.70;;;;;;4971959;28;1181;-73
2023/04/13 05:04:00;;;;;;;;;;;17.60;62.70;;;;;;4972408;28;832;-73
2023/04/13 05:06:26;;;;;;;;;;;17.60;62.60;;;;;;4973061;28;814;-73
2023/04/13 05:08:51;;;;;;;;;;;17.60;62.60;;;;;;4972953;28;1276;-75
2023/04/13 05:11:17;;;;;;;;;;;17.60;62.50;;;;;;4974010;28;793;-74
2023/04/13 05:13:42;;;;;;;;;;;17.60;62.50;;;;;;4973710;28;1894;-74
2023/04/13 05:16:09;;;;;;;;;;;17.60;62.50;;;;;;4972481;28;802;-76
2023/04/13 05:18:42;;;;;;;;;;;17.60;62.50;;;;;;4972895;28;1269;-74
2023/04/13 05:21:08;;;;;;;;;;;17.60;62.40;;;;;;4974707;28;824;-74
2023/04/13 05:23:33;;;;;;;;;;;17.60;62.40;;;;;;4986375;28;1205;-75
2023/04/13 05:25:59;;;;;;;;;;;17.60;62.40;;;;;;4967985;28;2060;-73
2023/04/13 05:28:25;;;;;;;;;;;17.60;62.40;;;;;;4971320;28;2028;-73
2023/04/13 05:30:51;;;;;;;;;;;17.60;62.40;;;;;;4972507;28;1314;-74
2023/04/13 05:33:16;;;;;;;;;;;17.60;62.40;;;;;;4955429;28;1097;-70
2023/04/13 05:35:42;;;;;;;;;;;17.60;62.40;;;;;;4972492;28;1906;-73
2023/04/13 05:38:08;;;;;;;;;;;17.60;62.40;;;;;;4970652;28;1588;-73
2023/04/13 05:40:34;;;;;;;;;;;17.70;62.50;;;;;;4971026;28;831;-71
2023/04/13 05:42:59;;;;;;;;;;;17.60;62.40;;;;;;4972367;28;1028;-72
2023/04/13 05:45:25;;;;;;;;;;;17.60;62.40;;;;;;4972241;28;1225;-75
2023/04/13 05:47:51;;;;;;;;;;;17.60;62.50;;;;;;4971740;28;1232;-73
2023/04/13 05:50:16;;;;;;;;;;;17.60;62.50;;;;;;4972370;28;832;-73
2023/04/13 05:52:42;;;;;;;;;;;17.60;62.50;;;;;;4972320;28;836;-73
2023/04/13 05:55:07;;;;;;;;;;;17.60;62.50;;;;;;4972113;28;1911;-74
2023/04/13 05:57:33;;;;;;;;;;;17.60;62.50;;;;;;4971029;28;1195;-72
2023/04/13 05:59:59;;;;;;;;;;;17.60;62.60;;;;;;4970663;28;897;-72
2023/04/13 06:02:25;;;;;;;;;;;17.60;62.60;;;;;;4972163;28;853;-74
2023/04/13 06:04:53;;;;;;;;;;;17.60;62.60;;;;;;4972856;28;815;-75
2023/04/13 06:07:22;;;;;;;;;;;17.60;62.70;;;;;;4972131;28;1307;-74
2023/04/13 06:09:47;;;;;;;;;;;17.60;62.70;;;;;;4970923;28;952;-75
2023/04/13 06:12:14;;;;;;;;;;;17.60;62.70;;;;;;4971390;28;905;-76
2023/04/13 06:14:40;;;;;;;;;;;17.60;62.80;;;;;;4970614;28;1895;-76
2023/04/13 06:17:05;;;;;;;;;;;17.60;62.80;;;;;;4970546;28;959;-74
2023/04/13 06:19:31;;;;;;;;;;;17.60;62.80;;;;;;4971444;28;1196;-73
2023/04/13 06:21:57;;;;;;;;;;;17.60;62.80;;;;;;4971976;28;1125;-74
2023/04/13 06:24:22;;;;;;;;;;;17.60;62.80;;;;;;4943703;28;1371;-73
2023/04/13 06:26:48;;;;;;;;;;;17.50;62.80;;;;;;4971832;28;999;-73
2023/04/13 06:29:13;;;;;;;;;;;17.50;62.80;;;;;;4970918;28;1326;-73
2023/04/13 06:31:39;;;;;;;;;;;17.50;62.90;;;;;;4971879;28;955;-73
2023/04/13 06:34:04;;;;;;;;;;;17.50;62.80;;;;;;4971726;28;1906;-73
2023/04/13 06:36:30;;;;;;;;;;;17.50;62.90;;;;;;4972915;28;793;-73
2023/04/13 06:38:55;;;;;;;;;;;17.50;62.90;;;;;;4972824;28;1569;-73
2023/04/13 06:41:21;;;;;;;;;;;17.50;63.00;;;;;;4973251;28;864;-73
2023/04/13 06:43:46;;;;;;;;;;;17.50;63.00;;;;;;4980985;28;1181;-73
2023/04/13 06:46:13;;;;;;;;;;;17.50;63.00;;;;;;4971712;28;1602;-74
2023/04/13 06:48:38;;;;;;;;;;;17.50;63.00;;;;;;4973315;28;1269;-73
2023/04/13 06:51:04;;;;;;;;;;;17.50;63.10;;;;;;4972460;28;805;-73
2023/04/13 06:53:29;;;;;;;;;;;17.50;63.10;;;;;;4972689;28;852;-73
2023/04/13 06:55:55;;;;;;;;;;;17.50;63.10;;;;;;4968800;28;1903;-77
2023/04/13 06:58:22;;;;;;;;;;;17.50;63.10;;;;;;4971044;28;1374;-73
2023/04/13 07:00:47;;;;;;;;;;;17.50;63.80;;;;;;4970972;28;901;-74
2023/04/13 07:03:13;;;;;;;;;;;17.50;63.10;;;;;;4971013;28;900;-75
2023/04/13 07:05:38;;;;;;;;;;;17.50;63.20;;;;;;4971707;28;806;-76
2023/04/13 07:08:04;;;;;;;;;;;17.50;63.20;;;;;;4968945;28;1422;-75
2023/04/13 07:10:30;;;;;;;;;;;17.50;63.20;;;;;;4973745;28;916;-74
2023/04/13 07:12:55;;;;;;;;;;;17.50;63.20;;;;;;4975096;28;1347;-74
2023/04/13 07:15:21;;;;;;;;;;;17.50;63.20;;;;;;4974770;28;1907;-75
2023/04/13 07:17:46;;;;;;;;;;;17.50;63.20;;;;;;4974086;28;1221;-72
2023/04/13 07:20:12;;;;;;;;;;;17.50;63.30;;;;;;4975149;28;1014;-71
2023/04/13 07:22:37;;;;;;;;;;;17.50;63.30;;;;;;4975485;28;1392;-74
2023/04/13 07:25:04;;;;;;;;;;;17.50;63.30;;;;;;4974827;28;931;-74
2023/04/13 07:27:29;;;;;;;;;;;17.40;63.30;;;;;;4972764;28;2009;-75
2023/04/13 07:29:55;;;;;;;;;;;17.40;63.30;;;;;;4975077;28;1434;-75
2023/04/13 07:32:21;;;;;;;;;;;17.40;63.30;;;;;;4974961;28;996;-75
2023/04/13 07:34:46;;;;;;;;;;;17.40;63.30;;;;;;4973030;28;1968;-75
2023/04/13 07:37:12;;;;;;;;;;;17.40;63.30;;;;;;4986476;28;1487;-74
2023/04/13 07:39:37;;;;;;;;;;;17.40;63.40;;;;;;4974167;28;1366;-76
2023/04/13 07:42:03;;;;;;;;;;;17.40;63.40;;;;;;4974272;28;1058;-75
2023/04/13 07:44:28;;;;;;;;;;;17.40;63.40;;;;;;4974785;28;809;-75
2023/04/13 07:46:55;;;;;;;;;;;17.40;63.40;;;;;;4973247;28;824;-75
2023/04/13 07:49:21;;;;;;;;;;;17.40;63.40;;;;;;4973013;28;1257;-74
2023/04/13 07:51:47;;;;;;;;;;;17.40;63.50;;;;;;4974777;28;857;-75
2023/04/13 07:54:12;;;;;;;;;;;17.40;63.50;;;;;;4973537;28;1970;-75
2023/04/13 07:56:38;;;;;;;;;;;17.40;63.50;;;;;;4974630;28;1463;-74
2023/04/13 07:59:03;;;;;;;;;;;17.40;63.50;;;;;;4973446;28;1260;-73
2023/04/13 08:01:29;;;;;;;;;;;17.40;63.50;;;;;;4973997;28;798;-74
2023/04/13 08:03:54;;;;;;;;;;;17.40;63.60;;;;;;4973754;28;836;-74
2023/04/13 08:06:21;;;;;;;;;;;17.40;63.60;;;;;;4972097;28;2124;-74
2023/04/13 08:08:46;;;;;;;;;;;17.40;63.60;;;;;;4973245;28;1399;-74
2023/04/13 08:11:11;;;;;;;;;;;17.40;63.60;;;;;;4970633;28;1441;-74
2023/04/13 08:13:37;;;;;;;;;;;17.40;63.60;;;;;;4971907;28;2152;-73
2023/04/13 08:16:02;;;;;;;;;;;17.40;63.60;;;;;;4972773;28;1899;-73
2023/04/13 08:18:30;;;;;;;;;;;17.40;63.70;;;;;;4972958;28;1374;-74
2023/04/13 08:20:57;;;;;;;;;;;17.40;63.70;;;;;;4973157;28;820;-74
2023/04/13 08:23:22;;;;;;;;;;;17.40;63.70;;;;;;4972658;28;1312;-74
2023/04/13 08:25:48;;;;;;;;;;;17.40;63.70;;;;;;4973786;28;799;-73
2023/04/13 08:28:13;;;;;;;;;;;17.30;63.60;;;;;;4985470;28;1335;-74
2023/04/13 08:30:39;;;;;;;;;;;17.40;63.80;;;;;;4972203;28;981;-74
2023/04/13 08:33:05;;;;;;;;;;;17.30;63.70;;;;;;4973608;28;824;-74
2023/04/13 08:35:31;;;;;;;;;;;17.40;63.80;;;;;;4955046;28;1922;-74
2023/04/13 08:37:56;;;;;;;;;;;17.30;63.70;;;;;;4971939;28;1478;-74
2023/04/13 08:40:22;;;;;;;;;;;17.30;63.70;;;;;;4972871;28;831;-74
2023/04/13 08:42:47;;;;;;;;;;;17.30;63.80;;;;;;4972254;28;991;-74
2023/04/13 08:45:13;;;;;;;;;;;17.30;63.80;;;;;;4971855;28;872;-73
2023/04/13 08:47:38;;;;;;;;;;;17.30;63.80;;;;;;4973012;28;1328;-73
2023/04/13 08:50:04;;;;;;;;;;;17.30;63.80;;;;;;4970493;28;1086;-74
2023/04/13 08:52:30;;;;;;;;;;;17.30;63.80;;;;;;4973196;28;891;-74
2023/04/13 08:54:59;;;;;;;;;;;17.30;63.80;;;;;;4971677;28;1894;-74
2023/04/13 08:57:26;;;;;;;;;;;17.30;63.80;;;;;;4961949;28;1601;-74
2023/04/13 08:59:52;;;;;;;;;;;17.30;63.80;;;;;;4973033;28;942;-74
2023/04/13 09:02:25;;;;;;;;;;;17.30;63.80;;;;;;4971917;28;869;-75
2023/04/13 09:04:52;;;;;;;;;;;17.30;63.90;;;;;;4971471;28;831;-75
2023/04/13 09:07:20;;;;;;;;;;;17.30;63.90;;;;;;4986186;28;1260;-74
2023/04/13 09:09:46;;;;;;;;;;;17.30;63.90;;;;;;4971630;28;795;-75
2023/04/13 09:12:13;;;;;;;;;;;17.30;63.90;;;;;;4972693;28;830;-74
2023/04/13 09:14:38;;;;;;;;;;;17.30;64.00;;;;;;4972867;28;1899;-74
2023/04/13 09:17:04;;;;;;;;;;;17.30;64.00;;;;;;4972765;28;1010;-74
2023/04/13 09:19:30;;;;;;;;;;;17.30;64.00;;;;;;4971599;28;1375;-74
2023/04/13 09:21:56;;;;;;;;;;;17.30;64.00;;;;;;4971547;28;935;-74
2023/04/13 09:24:21;;;;;;;;;;;17.30;64.00;;;;;;4972622;28;894;-74
2023/04/13 09:26:47;;;;;;;;;;;17.30;64.00;;;;;;4971219;28;931;-74
2023/04/13 09:29:13;;;;;;;;;;;17.30;64.80;;;;;;4971877;28;1901;-75
2023/04/13 09:31:39;;;;;;;;;;;17.30;64.10;;;;;;4971288;28;884;-74
2023/04/13 09:34:05;;;;;;;;;;;17.30;64.10;;;;;;4971826;28;1911;-75
2023/04/13 09:36:31;;;;;;;;;;;17.30;64.10;;;;;;4972043;28;840;-75
2023/04/13 09:38:57;;;;;;;;;;;17.30;64.10;;;;;;4971847;28;1542;-74
2023/04/13 09:41:35;;;;;;;;;;;17.30;64.10;;;;;;4974777;28;1285;-74
2023/04/13 09:44:01;;;;;;;;;;;17.30;64.10;;;;;;4946895;28;1102;-73
2023/04/13 09:46:27;;;;;;;;;;;17.30;64.20;;;;;;4973440;28;864;-73
2023/04/13 09:49:01;;;;;;;;;;;17.30;64.10;;;;;;4973186;28;1259;-73
2023/04/13 09:51:36;;;;;;;;;;;17.30;64.20;;;;;;4971523;28;931;-74
2023/04/13 09:54:02;;;;;;;;;;;17.30;64.20;;;;;;4972087;28;1902;-74
2023/04/13 09:56:27;;;;;;;;;;;17.30;64.20;;;;;;4970749;28;961;-74
2023/04/13 09:58:53;;;;;;;;;;;17.20;64.20;;;;;;4971760;28;1253;-74
2023/04/13 10:01:19;;;;;;;;;;;17.30;64.30;;;;;;4972160;28;856;-74
2023/04/13 10:03:45;;;;;;;;;;;17.30;64.30;;;;;;4970823;28;891;-74
2023/04/13 10:06:11;;;;;;;;;;;17.20;64.20;;;;;;4970652;28;876;-74
2023/04/13 10:08:37;;;;;;;;;;;17.20;64.20;;;;;;4970456;28;1309;-74
2023/04/13 10:11:03;;;;;;;;;;;17.20;64.20;;;;;;4971878;28;789;-74
2023/04/13 10:13:33;;;;;;;;;;;17.20;64.20;;;;;;4970544;28;888;-74
2023/04/13 10:16:17;;;;;;;;;;;17.30;64.30;;;;;;4970086;28;1931;-74
2023/04/13 10:18:51;;;;;;;;;;;17.30;64.30;;;;;;4971351;28;1324;-74
2023/04/13 10:21:16;;;;;;;;;;;17.20;64.20;;;;;;4969565;28;821;-74
2023/04/13 10:23:42;;;;;;;;;;;17.20;64.30;;;;;;4971165;28;1314;-74
2023/04/13 10:26:08;;;;;;;;;;;17.20;64.20;;;;;;4970373;28;851;-74
2023/04/13 10:28:41;;;;;;;;;;;17.20;64.30;;;;;;4969511;28;1247;-74
2023/04/13 10:31:07;;;;;;;;;;;17.20;64.30;;;;;;4971410;28;895;-75
2023/04/13 10:33:33;;;;;;;;;;;17.20;64.30;;;;;;4971562;28;1476;-74
2023/04/13 10:35:58;;;;;;;;;;;17.20;64.30;;;;;;4971394;28;1898;-74
2023/04/13 10:38:24;;;;;;;;;;;17.20;64.30;;;;;;4969263;28;1306;-74
2023/04/13 10:40:50;;;;;;;;;;;17.20;64.30;;;;;;4970727;28;841;-74
2023/04/13 10:43:25;;;;;;;;;;;17.20;64.30;;;;;;4969726;28;887;-74
2023/04/13 10:45:50;;;;;;;;;;;17.20;64.30;;;;;;4971164;28;880;-74
2023/04/13 10:48:21;;;;;;;;;;;17.20;64.30;;;;;;4969801;28;1411;-74
2023/04/13 10:50:56;;;;;;;;;;;17.20;64.40;;;;;;4970534;28;885;-74
2023/04/13 10:53:24;;;;;;;;;;;17.20;64.40;;;;;;4969896;28;960;-74
2023/04/13 10:55:50;;;;;;;;;;;17.20;64.40;;;;;;4969907;28;1906;-73
2023/04/13 10:58:16;;;;;;;;;;;17.20;64.40;;;;;;4950861;28;1349;-75
2023/04/13 11:00:42;;;;;;;;;;;17.20;64.40;;;;;;4953891;28;1273;-74
2023/04/13 11:03:08;;;;;;;;;;;17.20;64.40;;;;;;4963731;28;1086;-74
2023/04/13 11:05:33;;;;;;;;;;;17.20;64.40;;;;;;4951580;28;1185;-74
2023/04/13 11:07:59;;;;;;;;;;;17.20;64.40;;;;;;4971122;28;1318;-74
2023/04/13 11:10:28;;;;;;;;;;;17.20;64.50;;;;;;4971322;28;789;-74
2023/04/13 11:12:57;;;;;;;;;;;17.20;64.40;;;;;;4969784;28;879;-73
2023/04/13 11:15:26;;;;;;;;;;;17.20;64.50;;;;;;4970397;28;1961;-74
2023/04/13 11:17:51;;;;;;;;;;;17.20;64.50;;;;;;4969611;28;1297;-74
2023/04/13 11:20:17;;;;;;;;;;;17.20;64.50;;;;;;4971139;28;809;-73
2023/04/13 11:22:43;;;;;;;;;;;17.20;64.50;;;;;;4971229;28;1272;-74
2023/04/13 11:25:09;;;;;;;;;;;17.20;64.50;;;;;;4971144;28;868;-73
2023/04/13 11:27:34;;;;;;;;;;;17.20;64.50;;;;;;4969407;28;1279;-74
2023/04/13 11:30:04;;;;;;;;;;;17.20;64.50;;;;;;4969691;28;824;-73
2023/04/13 11:32:31;;;;;;;;;;;17.20;64.50;;;;;;4969773;28;928;-73
2023/04/13 11:35:26;;;;;;;;;;;17.20;64.60;;;;;;4972959;28;1919;-73
2023/04/13 11:37:52;;;;;;;;;;;17.20;64.60;;;;;;4973734;28;1604;-73
2023/04/13 11:40:22;;;;;;;;;;;17.20;64.60;;;;;;4969489;28;836;-73
2023/04/13 11:42:48;;;;;;;;;;;17.20;64.50;;;;;;4953046;28;1305;-73
2023/04/13 11:45:15;;;;;;;;;;;17.20;64.60;;;;;;4969526;28;1089;-73
2023/04/13 11:47:40;;;;;;;;;;;17.20;64.60;;;;;;4970098;28;1295;-73
2023/04/13 11:50:06;;;;;;;;;;;17.20;64.60;;;;;;4969503;28;875;-74
2023/04/13 11:52:32;;;;;;;;;;;17.20;64.60;;;;;;4972641;28;880;-74
2023/04/13 11:54:58;;;;;;;;;;;17.20;64.60;;;;;;4972876;28;1918;-75
2023/04/13 11:57:23;;;;;;;;;;;17.20;64.60;;;;;;4972807;28;1668;-75
2023/04/13 11:59:52;;;;;;;;;;;17.20;64.70;;;;;;4972970;28;999;-74
2023/04/13 12:02:27;;;;;;;;;;;17.20;64.70;;;;;;4972449;28;817;-74
2023/04/13 12:04:53;;;;;;;;;;;17.20;64.70;;;;;;4972838;28;1610;-75
2023/04/13 12:07:19;;;;;;;;;;;17.20;64.70;;;;;;4973991;28;1272;-74
2023/04/13 12:09:45;;;;;;;;;;;17.20;64.70;;;;;;4974033;28;833;-75
2023/04/13 12:12:15;;;;;;;;;;;17.10;65.30;;;;;;4972779;28;868;-75
2023/04/13 12:14:40;;;;;;;;;;;17.10;64.60;;;;;;4988135;28;1903;-74
2023/04/13 12:17:09;;;;;;;;;;;17.20;64.70;;;;;;4972655;28;876;-75
2023/04/13 12:19:37;;;;;;;;;;;17.20;64.70;;;;;;4956199;28;1634;-75
2023/04/13 12:22:03;;;;;;;;;;;17.20;64.70;;;;;;4973913;28;1014;-75
2023/04/13 12:24:32;;;;;;;;;;;17.20;64.70;;;;;;4974244;28;1244;-74
2023/04/13 12:27:00;;;;;;;;;;;17.10;64.70;;;;;;4971928;28;931;-75
2023/04/13 12:29:25;;;;;;;;;;;17.20;64.70;;;;;;4971802;28;1241;-74
2023/04/13 12:31:50;;;;;;;;;;;17.10;64.70;;;;;;4973455;28;891;-75
2023/04/13 12:34:16;;;;;;;;;;;17.20;64.70;;;;;;4973396;28;1914;-74
2023/04/13 12:36:42;;;;;;;;;;;17.10;64.70;;;;;;4972222;28;1376;-74
2023/04/13 12:39:07;;;;;;;;;;;17.10;64.70;;;;;;4973401;28;1283;-74
2023/04/13 12:41:33;;;;;;;;;;;17.10;64.70;;;;;;4959799;28;1253;-74
2023/04/13 12:43:58;;;;;;;;;;;17.10;64.70;;;;;;4973462;28;923;-74
2023/04/13 12:46:25;;;;;;;;;;;17.10;64.70;;;;;;4973483;28;1198;-74
2023/04/13 12:48:51;;;;;;;;;;;17.10;64.70;;;;;;4973181;28;1255;-74
2023/04/13 12:51:16;;;;;;;;;;;17.10;64.80;;;;;;4984824;28;1369;-75
2023/04/13 12:53:42;;;;;;;;;;;17.10;64.80;;;;;;4973807;28;920;-75
2023/04/13 12:56:07;;;;;;;;;;;17.10;64.70;;;;;;4973295;28;1902;-74
2023/04/13 12:58:34;;;;;;;;;;;17.10;65.50;;;;;;4972466;28;1343;-73
2023/04/13 13:01:00;;;;;;;;;;;17.10;64.80;;;;;;4971666;28;856;-75
2023/04/13 13:03:25;;;;;;;;;;;17.10;64.80;;;;;;4972372;28;848;-74
2023/04/13 13:05:51;;;;;;;;;;;17.10;64.80;;;;;;4973013;28;808;-74
2023/04/13 13:08:17;;;;;;;;;;;17.10;64.80;;;;;;4972793;28;1256;-75
2023/04/13 13:10:42;;;;;;;;;;;17.10;64.80;;;;;;4973144;28;903;-75
2023/04/13 13:13:07;;;;;;;;;;;17.10;64.80;;;;;;4971946;28;892;-74
2023/04/13 13:15:33;;;;;;;;;;;17.10;64.80;;;;;;4971706;28;1890;-75
2023/04/13 13:18:02;;;;;;;;;;;17.10;64.80;;;;;;4972588;28;1280;-75
2023/04/13 13:20:28;;;;;;;;;;;17.10;64.80;;;;;;4972148;28;904;-74
2023/04/13 13:22:53;;;;;;;;;;;17.10;64.80;;;;;;4973179;28;1339;-75
2023/04/13 13:25:19;;;;;;;;;;;17.10;64.80;;;;;;4973541;28;871;-74
2023/04/13 13:27:44;;;;;;;;;;;17.10;64.80;;;;;;4973730;28;1280;-74
2023/04/13 13:30:10;;;;;;;;;;;17.10;64.80;;;;;;4971375;28;878;-75
2023/04/13 13:32:35;;;;;;;;;;;17.10;64.80;;;;;;4971194;28;1113;-74
2023/04/13 13:35:01;;;;;;;;;;;17.10;64.80;;;;;;4972265;28;2075;-74
2023/04/13 13:37:27;;;;;;;;;;;17.10;64.90;;;;;;4972031;28;1564;-74
2023/04/13 13:39:53;;;;;;;;;;;17.10;64.90;;;;;;4970586;28;902;-74
2023/04/13 13:42:19;;;;;;;;;;;17.10;64.90;;;;;;4972368;28;898;-74
2023/04/13 13:44:44;;;;;;;;;;;17.10;64.90;;;;;;4969638;28;2140;-74
2023/04/13 13:47:10;;;;;;;;;;;17.10;64.90;;;;;;4974672;28;1948;-74
2023/04/13 13:49:35;;;;;;;;;;;17.10;64.90;;;;;;4970390;28;1972;-76
2023/04/13 13:52:01;;;;;;;;;;;17.10;64.90;;;;;;4972241;28;1401;-74
2023/04/13 13:54:26;;;;;;;;;;;17.10;64.90;;;;;;4973353;28;1907;-74
2023/04/13 13:56:51;;;;;;;;;;;17.10;64.90;;;;;;4971855;28;1293;-75
2023/04/13 13:59:17;;;;;;;;;;;17.10;64.90;;;;;;4971209;28;1298;-75
2023/04/13 14:01:43;;;;;;;;;;;17.10;64.90;;;;;;4984486;28;1180;-73
2023/04/13 14:04:09;;;;;;;;;;;17.10;64.90;;;;;;4971820;28;1274;-76
2023/04/13 14:06:34;;;;;;;;;;;17.10;64.90;;;;;;4971470;28;997;-74
2023/04/13 14:09:00;;;;;;;;;;;17.10;64.90;;;;;;4971916;28;1256;-74
2023/04/13 14:11:26;;;;;;;;;;;17.10;64.90;;;;;;4972405;28;865;-74
2023/04/13 14:13:54;;;;;;;;;;;17.10;64.90;;;;;;4950621;28;1235;-74
2023/04/13 14:16:20;;;;;;;;;;;17.10;64.90;;;;;;4972409;28;1895;-76
2023/04/13 14:18:46;;;;;;;;;;;17.10;65.00;;;;;;4954574;28;1301;-74
2023/04/13 14:21:11;;;;;;;;;;;17.10;65.00;;;;;;4984984;28;1972;-74
2023/04/13 14:23:39;;;;;;;;;;;17.10;64.90;;;;;;4968787;28;1344;-74
2023/04/13 14:26:04;;;;;;;;;;;17.10;64.90;;;;;;4968399;28;1445;-73
2023/04/13 14:28:31;;;;;;;;;;;17.10;65.00;;;;;;4966937;28;1513;-72
2023/04/13 14:30:57;;;;;;;;;;;17.10;65.00;;;;;;4970333;28;1438;-75